sensor_id;sensor_type;location;lat;lon;timestamp;pressure;altitude;pressure_sealevel;temperature;humidity
9474;BME280;8865;47.636;7.692;2024-01-27T00:01:43;100028.47;;;4.82;100.00
9474;BME280;8865;47.636;7.692;2024-01-27T00:04:09;100022.53;;;4.78;100.00
9474;BME280;8865;47.636;7.692;2024-01-27T00:06:35;100025.13;;;4.78;100.00
9474;BME280;8865;47.636;7.692;2024-01-27T00:09:01;100029.03;;;4.65;100.00
9474;BME280;8865;47.636;7.692;2024-01-27T00:11:28;100032.13;;;4.50;100.00
9474;BME280;8865;47.636;7.692;2024-01-27T00:13:54;100048.56;;;4.50;100.00
9474;BME280;8865;47.636;7.692;2024-01-27T00:16:20;100035.44;;;4.55;100.00
9474;BME280;8865;47.636;7.692;2024-01-27T00:18:46;100041.47;;;4.55;100.00
9474;BME280;8865;47.636;7.692;2024-01-27T00:21:12;100040.53;;;4.58;100.00
9474;BME280;8865;47.636;7.692;2024-01-27T00:23:38;100043.28;;;4.53;100.00
9474;BME280;8865;47.636;7.692;2024-01-27T00:26:04;100044.22;;;4.51;100.00
9474;BME280;8865;47.636;7.692;2024-01-27T00:28:30;100042.56;;;4.48;100.00
9474;BME280;8865;47.636;7.692;2024-01-27T00:30:56;100051.38;;;4.44;100.00
9474;BME280;8865;47.636;7.692;2024-01-27T00:33:22;100052.94;;;4.48;100.00
9474;BME280;8865;47.636;7.692;2024-01-27T00:35:48;100042.72;;;4.43;100.00
9474;BME280;8865;47.636;7.692;2024-01-27T00:38:14;100049.94;;;4.34;100.00
9474;BME280;8865;47.636;7.692;2024-01-27T00:40:40;100057.00;;;4.30;100.00
9474;BME280;8865;47.636;7.692;2024-01-27T00:43:06;100061.88;;;4.39;100.00
9474;BME280;8865;47.636;7.692;2024-01-27T00:45:32;100065.81;;;4.51;100.00
9474;BME280;8865;47.636;7.692;2024-01-27T00:48:02;100074.53;;;4.50;100.00
9474;BME280;8865;47.636;7.692;2024-01-27T00:50:28;100068.66;;;4.43;100.00
9474;BME280;8865;47.636;7.692;2024-01-27T00:52:54;100070.59;;;4.37;100.00
9474;BME280;8865;47.636;7.692;2024-01-27T00:55:20;100069.56;;;4.42;100.00
9474;BME280;8865;47.636;7.692;2024-01-27T00:57:46;100064.34;;;4.44;100.00
9474;BME280;8865;47.636;7.692;2024-01-27T01:00:12;100063.22;;;4.51;100.00
9474;BME280;8865;47.636;7.692;2024-01-27T01:02:39;100067.72;;;4.46;100.00
9474;BME280;8865;47.636;7.692;2024-01-27T01:05:06;100067.91;;;4.40;100.00
9474;BME280;8865;47.636;7.692;2024-01-27T01:07:33;100076.13;;;4.26;100.00
9474;BME280;8865;47.636;7.692;2024-01-27T01:09:59;100084.66;;;4.29;100.00
9474;BME280;8865;47.636;7.692;2024-01-27T01:12:25;100081.38;;;4.24;100.00
9474;BME280;8865;47.636;7.692;2024-01-27T01:14:52;100085.88;;;4.18;100.00
9474;BME280;8865;47.636;7.692;2024-01-27T01:17:18;100098.75;;;4.21;100.00
9474;BME280;8865;47.636;7.692;2024-01-27T01:19:44;100083.13;;;4.24;100.00
9474;BME280;8865;47.636;7.692;2024-01-27T01:22:10;100083.97;;;4.24;100.00
9474;BME280;8865;47.636;7.692;2024-01-27T01:24:36;100085.75;;;4.22;100.00
9474;BME280;8865;47.636;7.692;2024-01-27T01:27:03;100083.22;;;4.19;100.00
9474;BME280;8865;47.636;7.692;2024-01-27T01:29:29;100084.44;;;4.09;100.00
9474;BME280;8865;47.636;7.692;2024-01-27T01:31:55;100089.00;;;3.99;100.00
9474;BME280;8865;47.636;7.692;2024-01-27T01:34:21;100089.06;;;3.98;100.00
9474;BME280;8865;47.636;7.692;2024-01-27T01:36:48;100084.56;;;4.04;100.00
9474;BME280;8865;47.636;7.692;2024-01-27T01:39:14;100089.88;;;4.00;100.00
9474;BME280;8865;47.636;7.692;2024-01-27T01:41:40;100076.88;;;4.01;100.00
9474;BME280;8865;47.636;7.692;2024-01-27T01:44:07;100086.41;;;3.99;100.00
9474;BME280;8865;47.636;7.692;2024-01-27T01:46:33;100093.44;;;3.96;100.00
9474;BME280;8865;47.636;7.692;2024-01-27T01:49:00;100097.06;;;3.90;100.00
9474;BME280;8865;47.636;7.692;2024-01-27T01:51:26;100094.44;;;3.91;100.00
9474;BME280;8865;47.636;7.692;2024-01-27T01:53:57;100086.06;;;3.82;100.00
9474;BME280;8865;47.636;7.692;2024-01-27T01:56:24;100085.31;;;3.78;100.00
9474;BME280;8865;47.636;7.692;2024-01-27T01:58:50;100092.50;;;3.68;100.00
9474;BME280;8865;47.636;7.692;2024-01-27T02:01:20;100101.22;;;3.66;100.00
9474;BME280;8865;47.636;7.692;2024-01-27T02:03:54;100101.97;;;3.69;100.00
9474;BME280;8865;47.636;7.692;2024-01-27T02:06:20;100102.78;;;3.71;100.00
9474;BME280;8865;47.636;7.692;2024-01-27T02:08:46;100100.34;;;3.65;100.00
9474;BME280;8865;47.636;7.692;2024-01-27T02:11:12;100107.63;;;3.52;100.00
9474;BME280;8865;47.636;7.692;2024-01-27T02:13:38;100113.59;;;3.54;100.00
9474;BME280;8865;47.636;7.692;2024-01-27T02:16:05;100110.22;;;3.52;100.00
9474;BME280;8865;47.636;7.692;2024-01-27T02:18:31;100102.31;;;3.57;100.00
9474;BME280;8865;47.636;7.692;2024-01-27T02:20:57;100112.81;;;3.52;100.00
9474;BME280;8865;47.636;7.692;2024-01-27T02:23:23;100111.28;;;3.45;100.00
9474;BME280;8865;47.636;7.692;2024-01-27T02:25:49;100105.25;;;3.45;100.00
9474;BME280;8865;47.636;7.692;2024-01-27T02:28:16;100108.59;;;3.48;100.00
9474;BME280;8865;47.636;7.692;2024-01-27T02:30:43;100111.19;;;3.48;100.00
9474;BME280;8865;47.636;7.692;2024-01-27T02:33:09;100124.22;;;3.45;100.00
9474;BME280;8865;47.636;7.692;2024-01-27T02:35:35;100113.97;;;3.40;100.00
9474;BME280;8865;47.636;7.692;2024-01-27T02:38:01;100110.88;;;3.28;100.00
9474;BME280;8865;47.636;7.692;2024-01-27T02:40:27;100115.47;;;3.18;100.00
9474;BME280;8865;47.636;7.692;2024-01-27T02:42:53;100119.84;;;3.14;100.00
9474;BME280;8865;47.636;7.692;2024-01-27T02:45:19;100117.50;;;3.05;100.00
9474;BME280;8865;47.636;7.692;2024-01-27T02:47:45;100124.69;;;2.94;100.00
9474;BME280;8865;47.636;7.692;2024-01-27T02:50:11;100125.59;;;2.91;100.00
9474;BME280;8865;47.636;7.692;2024-01-27T02:52:37;100126.44;;;2.92;100.00
9474;BME280;8865;47.636;7.692;2024-01-27T02:55:05;100125.59;;;2.91;100.00
9474;BME280;8865;47.636;7.692;2024-01-27T02:57:31;100126.47;;;2.90;100.00
9474;BME280;8865;47.636;7.692;2024-01-27T02:59:57;100124.72;;;2.92;100.00
9474;BME280;8865;47.636;7.692;2024-01-27T03:02:23;100125.56;;;2.93;100.00
9474;BME280;8865;47.636;7.692;2024-01-27T03:04:50;100130.78;;;2.91;100.00
9474;BME280;8865;47.636;7.692;2024-01-27T03:07:16;100132.41;;;2.95;100.00
9474;BME280;8865;47.636;7.692;2024-01-27T03:09:42;100133.38;;;2.91;100.00
9474;BME280;8865;47.636;7.692;2024-01-27T03:12:08;100136.94;;;2.85;100.00
9474;BME280;8865;47.636;7.692;2024-01-27T03:14:35;100128.53;;;2.77;100.00
9474;BME280;8865;47.636;7.692;2024-01-27T03:17:01;100131.13;;;2.77;100.00
9474;BME280;8865;47.636;7.692;2024-01-27T03:19:27;100131.19;;;2.74;100.00
9474;BME280;8865;47.636;7.692;2024-01-27T03:21:53;100132.91;;;2.75;100.00
9474;BME280;8865;47.636;7.692;2024-01-27T03:24:19;100138.06;;;2.75;100.00
9474;BME280;8865;47.636;7.692;2024-01-27T03:26:45;100144.88;;;2.78;100.00
9474;BME280;8865;47.636;7.692;2024-01-27T03:29:11;100135.75;;;2.64;100.00
9474;BME280;8865;47.636;7.692;2024-01-27T03:31:37;100135.78;;;2.63;100.00
9474;BME280;8865;47.636;7.692;2024-01-27T03:34:03;100142.56;;;2.67;100.00
9474;BME280;8865;47.636;7.692;2024-01-27T03:36:29;100146.13;;;2.63;100.00
9474;BME280;8865;47.636;7.692;2024-01-27T03:38:57;100143.53;;;2.63;100.00
9474;BME280;8865;47.636;7.692;2024-01-27T03:41:23;100145.47;;;2.53;100.00
9474;BME280;8865;47.636;7.692;2024-01-27T03:43:49;100147.50;;;2.39;100.00
9474;BME280;8865;47.636;7.692;2024-01-27T03:46:15;100152.81;;;2.32;100.00
9474;BME280;8865;47.636;7.692;2024-01-27T03:48:41;100153.31;;;2.48;100.00
9474;BME280;8865;47.636;7.692;2024-01-27T03:51:08;100155.13;;;2.45;100.00
9474;BME280;8865;47.636;7.692;2024-01-27T03:53:34;100145.81;;;2.38;100.00
9474;BME280;8865;47.636;7.692;2024-01-27T03:56:00;100147.78;;;2.26;100.00
9474;BME280;8865;47.636;7.692;2024-01-27T03:58:30;100155.53;;;2.26;100.00
9474;BME280;8865;47.636;7.692;2024-01-27T04:00:59;100154.63;;;2.29;100.00
9474;BME280;8865;47.636;7.692;2024-01-27T04:03:25;100163.09;;;2.36;100.00
9474;BME280;8865;47.636;7.692;2024-01-27T04:05:51;100162.31;;;2.32;100.00
9474;BME280;8865;47.636;7.692;2024-01-27T04:08:17;100159.94;;;2.23;100.00
9474;BME280;8865;47.636;7.692;2024-01-27T04:10:43;100161.59;;;2.25;100.00
9474;BME280;8865;47.636;7.692;2024-01-27T04:13:09;100169.41;;;2.22;100.00
9474;BME280;8865;47.636;7.692;2024-01-27T04:15:35;100169.47;;;2.19;100.00
9474;BME280;8865;47.636;7.692;2024-01-27T04:18:07;100173.91;;;2.14;100.00
9474;BME280;8865;47.636;7.692;2024-01-27T04:20:35;100174.84;;;2.10;100.00
9474;BME280;8865;47.636;7.692;2024-01-27T04:23:01;100171.47;;;2.06;100.00
9474;BME280;8865;47.636;7.692;2024-01-27T04:25:28;100164.69;;;2.01;100.00
9474;BME280;8865;47.636;7.692;2024-01-27T04:27:54;100176.47;;;2.14;100.00
9474;BME280;8865;47.636;7.692;2024-01-27T04:30:20;100178.16;;;2.17;100.00
9474;BME280;8865;47.636;7.692;2024-01-27T04:32:46;100177.03;;;2.28;100.00
9474;BME280;8865;47.636;7.692;2024-01-27T04:35:14;100174.50;;;2.25;100.00
9474;BME280;8865;47.636;7.692;2024-01-27T04:37:40;100180.75;;;2.17;100.00
9474;BME280;8865;47.636;7.692;2024-01-27T04:40:07;100179.94;;;2.13;100.00
9474;BME280;8865;47.636;7.692;2024-01-27T04:42:34;100183.44;;;2.12;100.00
9474;BME280;8865;47.636;7.692;2024-01-27T04:45:00;100185.00;;;2.18;100.00
9474;BME280;8865;47.636;7.692;2024-01-27T04:47:26;100192.78;;;2.18;100.00
9474;BME280;8865;47.636;7.692;2024-01-27T04:49:53;100192.97;;;2.08;100.00
9474;BME280;8865;47.636;7.692;2024-01-27T04:52:19;100200.84;;;2.02;100.00
9474;BME280;8865;47.636;7.692;2024-01-27T04:54:46;100206.78;;;2.06;100.00
9474;BME280;8865;47.636;7.692;2024-01-27T04:57:12;100204.19;;;2.06;100.00
9474;BME280;8865;47.636;7.692;2024-01-27T04:59:38;100202.31;;;2.16;100.00
9474;BME280;8865;47.636;7.692;2024-01-27T05:02:04;100195.38;;;2.16;100.00
9474;BME280;8865;47.636;7.692;2024-01-27T05:04:30;100199.69;;;2.17;100.00
9474;BME280;8865;47.636;7.692;2024-01-27T05:06:56;100199.72;;;2.16;100.00
9474;BME280;8865;47.636;7.692;2024-01-27T05:09:22;100190.41;;;2.07;100.00
9474;BME280;8865;47.636;7.692;2024-01-27T05:11:49;100186.13;;;2.04;100.00
9474;BME280;8865;47.636;7.692;2024-01-27T05:14:17;100186.00;;;2.10;100.00
9474;BME280;8865;47.636;7.692;2024-01-27T05:16:43;100182.44;;;2.18;100.00
9474;BME280;8865;47.636;7.692;2024-01-27T05:19:10;100183.19;;;2.24;100.00
9474;BME280;8865;47.636;7.692;2024-01-27T05:21:37;100183.91;;;2.29;100.00
9474;BME280;8865;47.636;7.692;2024-01-27T05:24:04;100184.75;;;2.30;100.00
9474;BME280;8865;47.636;7.692;2024-01-27T05:26:31;100176.91;;;2.35;100.00
9474;BME280;8865;47.636;7.692;2024-01-27T05:28:57;100180.22;;;2.41;100.00
9474;BME280;8865;47.636;7.692;2024-01-27T05:31:23;100184.44;;;2.45;100.00
9474;BME280;8865;47.636;7.692;2024-01-27T05:33:51;100189.47;;;2.52;100.00
9474;BME280;8865;47.636;7.692;2024-01-27T05:36:17;100189.44;;;2.53;100.00
9474;BME280;8865;47.636;7.692;2024-01-27T05:38:43;100201.50;;;2.54;100.00
9474;BME280;8865;47.636;7.692;2024-01-27T05:41:09;100210.91;;;2.58;100.00
9474;BME280;8865;47.636;7.692;2024-01-27T05:43:36;100208.38;;;2.55;100.00
9474;BME280;8865;47.636;7.692;2024-01-27T05:46:02;100203.38;;;2.47;100.00
9474;BME280;8865;47.636;7.692;2024-01-27T05:48:28;100205.19;;;2.42;100.00
9474;BME280;8865;47.636;7.692;2024-01-27T05:51:01;100203.47;;;2.43;100.00
9474;BME280;8865;47.636;7.692;2024-01-27T05:53:27;100189.63;;;2.44;100.00
9474;BME280;8865;47.636;7.692;2024-01-27T05:55:54;100199.09;;;2.45;100.00
9474;BME280;8865;47.636;7.692;2024-01-27T05:58:20;100198.88;;;2.56;100.00
9474;BME280;8865;47.636;7.692;2024-01-27T06:00:52;100199.69;;;2.58;100.00
9474;BME280;8865;47.636;7.692;2024-01-27T06:03:19;100201.22;;;2.66;100.00
9474;BME280;8865;47.636;7.692;2024-01-27T06:05:45;100196.00;;;2.68;100.00
9474;BME280;8865;47.636;7.692;2024-01-27T06:08:12;100190.75;;;2.73;100.00
9474;BME280;8865;47.636;7.692;2024-01-27T06:10:38;100189.91;;;2.72;100.00
9474;BME280;8865;47.636;7.692;2024-01-27T06:13:05;100184.47;;;2.83;100.00
9474;BME280;8865;47.636;7.692;2024-01-27T06:15:31;100189.63;;;2.84;100.00
9474;BME280;8865;47.636;7.692;2024-01-27T06:17:57;100195.75;;;2.80;100.00
9474;BME280;8865;47.636;7.692;2024-01-27T06:20:23;100190.53;;;2.82;100.00
9474;BME280;8865;47.636;7.692;2024-01-27T06:22:50;100198.19;;;2.86;100.00
9474;BME280;8865;47.636;7.692;2024-01-27T06:25:18;100190.31;;;2.91;100.00
9474;BME280;8865;47.636;7.692;2024-01-27T06:27:44;100194.56;;;2.94;100.00
9474;BME280;8865;47.636;7.692;2024-01-27T06:30:10;100191.84;;;3.00;100.00
9474;BME280;8865;47.636;7.692;2024-01-27T06:32:37;100190.19;;;2.96;100.00
9474;BME280;8865;47.636;7.692;2024-01-27T06:35:03;100184.06;;;3.00;100.00
9474;BME280;8865;47.636;7.692;2024-01-27T06:37:30;100186.66;;;3.00;100.00
9474;BME280;8865;47.636;7.692;2024-01-27T06:39:56;100183.19;;;2.99;100.00
9474;BME280;8865;47.636;7.692;2024-01-27T06:42:22;100188.50;;;2.95;100.00
9474;BME280;8865;47.636;7.692;2024-01-27T06:44:48;100189.34;;;2.95;100.00
9474;BME280;8865;47.636;7.692;2024-01-27T06:47:14;100194.50;;;2.97;100.00
9474;BME280;8865;47.636;7.692;2024-01-27T06:49:40;100197.97;;;2.96;100.00
9474;BME280;8865;47.636;7.692;2024-01-27T06:52:06;100209.06;;;3.01;100.00
9474;BME280;8865;47.636;7.692;2024-01-27T06:54:32;100207.25;;;3.04;100.00
9474;BME280;8865;47.636;7.692;2024-01-27T06:57:01;100205.38;;;3.11;100.00
9474;BME280;8865;47.636;7.692;2024-01-27T06:59:28;100193.19;;;3.16;100.00
9474;BME280;8865;47.636;7.692;2024-01-27T07:01:54;100200.88;;;3.19;100.00
9474;BME280;8865;47.636;7.692;2024-01-27T07:04:20;100206.00;;;3.21;100.00
9474;BME280;8865;47.636;7.692;2024-01-27T07:06:46;100209.41;;;3.23;100.00
9474;BME280;8865;47.636;7.692;2024-01-27T07:09:13;100203.38;;;3.22;100.00
9474;BME280;8865;47.636;7.692;2024-01-27T07:11:39;100206.75;;;3.26;100.00
9474;BME280;8865;47.636;7.692;2024-01-27T07:14:05;100206.66;;;3.29;100.00
9474;BME280;8865;47.636;7.692;2024-01-27T07:16:32;100199.63;;;3.34;100.00
9474;BME280;8865;47.636;7.692;2024-01-27T07:19:00;100198.03;;;3.30;100.00
9474;BME280;8865;47.636;7.692;2024-01-27T07:21:26;100200.50;;;3.35;100.00
9474;BME280;8865;47.636;7.692;2024-01-27T07:23:54;100200.72;;;3.26;100.00
9474;BME280;8865;47.636;7.692;2024-01-27T07:26:20;100196.47;;;3.23;100.00
9474;BME280;8865;47.636;7.692;2024-01-27T07:28:47;100194.72;;;3.24;100.00
9474;BME280;8865;47.636;7.692;2024-01-27T07:31:13;100199.09;;;3.21;100.00
9474;BME280;8865;47.636;7.692;2024-01-27T07:33:39;100197.47;;;3.16;100.00
9474;BME280;8865;47.636;7.692;2024-01-27T07:36:06;100202.47;;;3.24;100.00
9474;BME280;8865;47.636;7.692;2024-01-27T07:38:32;100200.72;;;3.26;100.00
9474;BME280;8865;47.636;7.692;2024-01-27T07:40:58;100209.44;;;3.21;100.00
9474;BME280;8865;47.636;7.692;2024-01-27T07:43:25;100203.50;;;3.18;100.00
9474;BME280;8865;47.636;7.692;2024-01-27T07:45:52;100199.94;;;3.22;100.00
9474;BME280;8865;47.636;7.692;2024-01-27T07:48:20;100197.19;;;3.28;100.00
9474;BME280;8865;47.636;7.692;2024-01-27T07:50:46;100198.84;;;3.31;100.00
9474;BME280;8865;47.636;7.692;2024-01-27T07:53:15;100191.03;;;3.32;100.00
9474;BME280;8865;47.636;7.692;2024-01-27T07:55:41;100189.34;;;3.31;100.00
9474;BME280;8865;47.636;7.692;2024-01-27T07:58:07;100188.25;;;3.40;100.00
9474;BME280;8865;47.636;7.692;2024-01-27T08:00:33;100186.41;;;3.45;100.00
9474;BME280;8865;47.636;7.692;2024-01-27T08:02:59;100177.25;;;3.32;100.00
9474;BME280;8865;47.636;7.692;2024-01-27T08:05:25;100174.50;;;3.38;100.00
9474;BME280;8865;47.636;7.692;2024-01-27T08:07:51;100176.81;;;3.49;100.00
9474;BME280;8865;47.636;7.692;2024-01-27T08:10:17;100176.66;;;3.55;100.00
9474;BME280;8865;47.636;7.692;2024-01-27T08:12:43;100178.09;;;3.65;100.00
9474;BME280;8865;47.636;7.692;2024-01-27T08:15:09;100177.09;;;3.71;100.00
9474;BME280;8865;47.636;7.692;2024-01-27T08:17:35;100185.50;;;3.79;100.00
9474;BME280;8865;47.636;7.692;2024-01-27T08:20:01;100183.56;;;3.87;100.00
9474;BME280;8865;47.636;7.692;2024-01-27T08:22:28;100173.88;;;3.94;100.00
9474;BME280;8865;47.636;7.692;2024-01-27T08:24:54;100178.97;;;3.97;100.00
9474;BME280;8865;47.636;7.692;2024-01-27T08:27:21;100181.53;;;3.99;100.00
9474;BME280;8865;47.636;7.692;2024-01-27T08:29:47;100185.59;;;4.07;100.00
9474;BME280;8865;47.636;7.692;2024-01-27T08:32:12;100185.13;;;4.24;100.00
9474;BME280;8865;47.636;7.692;2024-01-27T08:34:39;100177.06;;;4.34;100.00
9474;BME280;8865;47.636;7.692;2024-01-27T08:37:17;100184.53;;;4.44;100.00
9474;BME280;8865;47.636;7.692;2024-01-27T08:39:43;100177.91;;;4.64;100.00
9474;BME280;8865;47.636;7.692;2024-01-27T08:42:11;100183.47;;;5.07;100.00
9474;BME280;8865;47.636;7.692;2024-01-27T08:44:37;100167.25;;;5.52;100.00
9474;BME280;8865;47.636;7.692;2024-01-27T08:47:05;100155.03;;;5.79;100.00
9474;BME280;8865;47.636;7.692;2024-01-27T08:49:31;100146.91;;;5.88;100.00
9474;BME280;8865;47.636;7.692;2024-01-27T08:51:57;100136.22;;;5.96;100.00
9474;BME280;8865;47.636;7.692;2024-01-27T08:54:23;100140.47;;;6.22;100.00
9474;BME280;8865;47.636;7.692;2024-01-27T08:56:49;100140.16;;;6.76;100.00
9474;BME280;8865;47.636;7.692;2024-01-27T08:59:15;100132.63;;;7.52;100.00
9474;BME280;8865;47.636;7.692;2024-01-27T09:01:42;100136.19;;;8.10;100.00
9474;BME280;8865;47.636;7.692;2024-01-27T09:04:08;100140.84;;;8.22;100.00
9474;BME280;8865;47.636;7.692;2024-01-27T09:06:35;100144.09;;;8.27;100.00
9474;BME280;8865;47.636;7.692;2024-01-27T09:09:01;100132.44;;;8.53;100.00
9474;BME280;8865;47.636;7.692;2024-01-27T09:11:28;100128.50;;;8.81;100.00
9474;BME280;8865;47.636;7.692;2024-01-27T09:13:56;100125.53;;;9.24;100.00
9474;BME280;8865;47.636;7.692;2024-01-27T09:16:22;100111.25;;;10.14;100.00
9474;BME280;8865;47.636;7.692;2024-01-27T09:18:49;100104.47;;;11.92;100.00
9474;BME280;8865;47.636;7.692;2024-01-27T09:21:16;100101.66;;;14.20;83.10
9474;BME280;8865;47.636;7.692;2024-01-27T09:23:47;100097.25;;;15.40;65.28
9474;BME280;8865;47.636;7.692;2024-01-27T09:26:13;100099.94;;;15.62;61.41
9474;BME280;8865;47.636;7.692;2024-01-27T09:28:40;100091.88;;;14.94;64.53
9474;BME280;8865;47.636;7.692;2024-01-27T09:31:10;100092.25;;;14.53;67.46
9474;BME280;8865;47.636;7.692;2024-01-27T09:33:37;100086.22;;;15.57;62.97
9474;BME280;8865;47.636;7.692;2024-01-27T09:36:03;100086.25;;;16.78;58.05
9474;BME280;8865;47.636;7.692;2024-01-27T09:38:29;100088.25;;;18.91;50.13
9474;BME280;8865;47.636;7.692;2024-01-27T09:40:56;100086.56;;;19.94;44.90
9474;BME280;8865;47.636;7.692;2024-01-27T09:43:24;100093.34;;;20.34;41.99
9474;BME280;8865;47.636;7.692;2024-01-27T09:45:51;100078.72;;;21.55;39.35
9474;BME280;8865;47.636;7.692;2024-01-27T09:48:17;100080.91;;;22.86;37.72
9474;BME280;8865;47.636;7.692;2024-01-27T09:50:45;100071.22;;;23.01;35.13
9474;BME280;8865;47.636;7.692;2024-01-27T09:53:11;100076.88;;;23.23;33.66
9474;BME280;8865;47.636;7.692;2024-01-27T09:55:38;100075.88;;;24.20;32.66
9474;BME280;8865;47.636;7.692;2024-01-27T09:58:04;100074.00;;;25.66;30.78
9474;BME280;8865;47.636;7.692;2024-01-27T10:00:32;100064.53;;;26.80;27.99
9474;BME280;8865;47.636;7.692;2024-01-27T10:03:00;100065.88;;;28.84;25.55
9474;BME280;8865;47.636;7.692;2024-01-27T10:05:27;100074.75;;;29.51;24.50
9474;BME280;8865;47.636;7.692;2024-01-27T10:07:53;100068.66;;;30.85;23.84
9474;BME280;8865;47.636;7.692;2024-01-27T10:10:19;100062.72;;;32.13;22.49
9474;BME280;8865;47.636;7.692;2024-01-27T10:12:46;100064.97;;;31.85;21.52
9474;BME280;8865;47.636;7.692;2024-01-27T10:15:22;100065.84;;;32.28;21.16
9474;BME280;8865;47.636;7.692;2024-01-27T10:17:48;100063.47;;;32.20;21.62
9474;BME280;8865;47.636;7.692;2024-01-27T10:20:14;100066.16;;;31.90;21.25
9474;BME280;8865;47.636;7.692;2024-01-27T10:22:45;100067.31;;;32.97;20.60
9474;BME280;8865;47.636;7.692;2024-01-27T10:25:12;100056.00;;;32.46;21.48
9474;BME280;8865;47.636;7.692;2024-01-27T10:27:38;100055.88;;;32.40;20.07
9474;BME280;8865;47.636;7.692;2024-01-27T10:30:05;100055.81;;;31.98;20.29
9474;BME280;8865;47.636;7.692;2024-01-27T10:32:33;100049.75;;;32.45;20.67
9474;BME280;8865;47.636;7.692;2024-01-27T10:35:06;100047.59;;;32.66;20.53
9474;BME280;8865;47.636;7.692;2024-01-27T10:37:34;100038.72;;;32.28;20.28
9474;BME280;8865;47.636;7.692;2024-01-27T10:40:05;100028.59;;;32.66;19.97
9474;BME280;8865;47.636;7.692;2024-01-27T10:42:34;100028.22;;;32.74;20.30
9474;BME280;8865;47.636;7.692;2024-01-27T10:45:02;100016.28;;;31.42;20.75
9474;BME280;8865;47.636;7.692;2024-01-27T10:47:31;100019.66;;;31.74;21.02
9474;BME280;8865;47.636;7.692;2024-01-27T10:49:58;100007.41;;;30.91;20.99
9474;BME280;8865;47.636;7.692;2024-01-27T10:52:30;100001.38;;;31.14;21.37
9474;BME280;8865;47.636;7.692;2024-01-27T10:55:01;100006.78;;;31.69;20.95
9474;BME280;8865;47.636;7.692;2024-01-27T10:57:30;99992.66;;;31.67;21.16
9474;BME280;8865;47.636;7.692;2024-01-27T10:59:57;99990.09;;;31.36;21.54
9474;BME280;8865;47.636;7.692;2024-01-27T11:02:24;99997.44;;;32.92;18.99
9474;BME280;8865;47.636;7.692;2024-01-27T11:04:51;99992.53;;;31.62;21.36
9474;BME280;8865;47.636;7.692;2024-01-27T11:07:20;99986.50;;;31.23;21.61
9474;BME280;8865;47.636;7.692;2024-01-27T11:09:49;99987.66;;;32.25;20.12
9474;BME280;8865;47.636;7.692;2024-01-27T11:12:17;99976.88;;;31.09;21.26
9474;BME280;8865;47.636;7.692;2024-01-27T11:14:44;99977.31;;;30.30;22.21
9474;BME280;8865;47.636;7.692;2024-01-27T11:17:11;99984.47;;;30.75;22.03
9474;BME280;8865;47.636;7.692;2024-01-27T11:19:39;99976.13;;;31.57;21.86
9474;BME280;8865;47.636;7.692;2024-01-27T11:22:05;99975.44;;;31.62;21.73
9474;BME280;8865;47.636;7.692;2024-01-27T11:24:32;99965.56;;;31.67;21.27
9474;BME280;8865;47.636;7.692;2024-01-27T11:27:05;99963.47;;;31.32;22.11
9474;BME280;8865;47.636;7.692;2024-01-27T11:29:32;99968.75;;;31.09;21.36
9474;BME280;8865;47.636;7.692;2024-01-27T11:32:01;99962.84;;;30.75;22.10
9474;BME280;8865;47.636;7.692;2024-01-27T11:34:28;99954.78;;;30.68;21.97
9474;BME280;8865;47.636;7.692;2024-01-27T11:37:14;99948.88;;;32.13;20.64
9474;BME280;8865;47.636;7.692;2024-01-27T11:39:41;99945.09;;;31.72;21.05
9474;BME280;8865;47.636;7.692;2024-01-27T11:42:08;99941.69;;;32.18;20.76
9474;BME280;8865;47.636;7.692;2024-01-27T11:44:37;99931.56;;;32.37;21.01
9474;BME280;8865;47.636;7.692;2024-01-27T11:47:04;99927.91;;;31.78;20.83
9474;BME280;8865;47.636;7.692;2024-01-27T11:49:31;99923.22;;;32.27;20.59
9474;BME280;8865;47.636;7.692;2024-01-27T11:51:59;99935.66;;;33.23;20.03
9474;BME280;8865;47.636;7.692;2024-01-27T11:54:25;99938.97;;;33.25;19.72
9474;BME280;8865;47.636;7.692;2024-01-27T11:56:51;99926.00;;;31.48;19.96
9474;BME280;8865;47.636;7.692;2024-01-27T11:59:17;99918.41;;;31.99;20.08
9474;BME280;8865;47.636;7.692;2024-01-27T12:01:43;99921.13;;;31.99;20.85
9474;BME280;8865;47.636;7.692;2024-01-27T12:04:09;99920.09;;;33.06;19.14
9474;BME280;8865;47.636;7.692;2024-01-27T12:06:35;99915.47;;;33.19;18.61
9474;BME280;8865;47.636;7.692;2024-01-27T12:09:03;99920.53;;;33.85;19.56
9474;BME280;8865;47.636;7.692;2024-01-27T12:11:29;99922.78;;;34.22;19.42
9474;BME280;8865;47.636;7.692;2024-01-27T12:13:56;99927.00;;;34.12;18.55
9474;BME280;8865;47.636;7.692;2024-01-27T12:16:22;99912.47;;;33.73;18.26
9474;BME280;8865;47.636;7.692;2024-01-27T12:18:52;99908.31;;;33.99;19.19
9474;BME280;8865;47.636;7.692;2024-01-27T12:21:21;99904.41;;;34.46;18.09
9474;BME280;8865;47.636;7.692;2024-01-27T12:23:57;99899.44;;;34.60;18.02
9474;BME280;8865;47.636;7.692;2024-01-27T12:26:29;99896.28;;;34.68;17.87
9474;BME280;8865;47.636;7.692;2024-01-27T12:28:55;99899.81;;;34.29;18.14
9474;BME280;8865;47.636;7.692;2024-01-27T12:31:25;99895.34;;;34.06;18.38
9474;BME280;8865;47.636;7.692;2024-01-27T12:33:53;99896.25;;;33.08;18.58
9474;BME280;8865;47.636;7.692;2024-01-27T12:36:20;99887.72;;;33.17;19.10
9474;BME280;8865;47.636;7.692;2024-01-27T12:38:53;99883.91;;;33.29;18.77
9474;BME280;8865;47.636;7.692;2024-01-27T12:41:20;99884.22;;;33.62;18.85
9474;BME280;8865;47.636;7.692;2024-01-27T12:43:46;99881.84;;;33.77;18.43
9474;BME280;8865;47.636;7.692;2024-01-27T12:46:12;99875.69;;;33.70;18.37
9474;BME280;8865;47.636;7.692;2024-01-27T12:48:38;99882.34;;;34.42;18.02
9474;BME280;8865;47.636;7.692;2024-01-27T12:51:04;99871.53;;;34.13;17.50
9474;BME280;8865;47.636;7.692;2024-01-27T12:53:30;99878.53;;;34.82;17.86
9474;BME280;8865;47.636;7.692;2024-01-27T12:55:56;99870.66;;;34.64;17.39
9474;BME280;8865;47.636;7.692;2024-01-27T12:58:22;99869.16;;;34.00;17.77
9474;BME280;8865;47.636;7.692;2024-01-27T13:00:48;99866.66;;;33.81;17.46
9474;BME280;8865;47.636;7.692;2024-01-27T13:03:14;99864.63;;;33.89;17.68
9474;BME280;8865;47.636;7.692;2024-01-27T13:05:40;99865.63;;;34.56;16.94
9474;BME280;8865;47.636;7.692;2024-01-27T13:08:06;99858.56;;;32.48;18.31
9474;BME280;8865;47.636;7.692;2024-01-27T13:10:34;99863.03;;;27.06;23.22